Terminal Aerodrome Forecast
Issued by NWS

Home | Current Version | Previous Version | Text Only | Print | Product List | Glossary On
Versions: 1 2 3 4 5 6 7 8 9 10 11 12 13
000
FTUS42 KMLB 300500
TAFFPR
TAF
KFPR 300538Z 3006/3106 11006KT P6SM BKN250
     FM300700 14003KT P6SM FEW020 SCT120
     FM301400 12007KT P6SM SCT035
     FM301700 11011KT P6SM VCTS SCT040CB
     FM302300 11004KT P6SM FEW050 BKN250=

USA.gov is the U.S. government's official web portal to all federal, state and local government web resources and services.